1861 Hurricane NOT_NAMED (1861254N19314)


IBTrACS version v04r00. Visit IBTrACS website for data access.
Please direct all questions to the IBTrACS Q and A forum

Storm track - Intensity - Wind Radii - Intensity Data - Source Data - All data

Summary Information

Storm ID 1861254N19314
Start Sep 11 00Z
Max Intensity 70 kt (Sep 16 12Z)
End Sep 18 12Z
ATCF IDs
Track status Best track data.

Storm track plot

Map of storm track

Intensity plots

Map of storm track

Radial wind information

No radial wind information for this storm


Position and Intensity Table

BASIN ISO_TIME_________ NATURE LAT LON MLC WIND
degrees north degrees east kts
NA 1861-09-11 00:00:00 TS 19.00 -46.30 30
NA 03:00:00 TS 19.35 -46.55 30
NA 06:00:00 TS 19.70 -46.80 30
NA 09:00:00 TS 20.05 -47.05 32
NA 12:00:00 TS 20.40 -47.30 35
NA 15:00:00 TS 20.75 -47.54 35
NA 18:00:00 TS 21.10 -47.80 35
NA 21:00:00 TS 21.45 -48.10 35
NA 1861-09-12 00:00:00 TS 21.80 -48.40 35
NA 03:00:00 TS 22.14 -48.66 35
NA 06:00:00 TS 22.50 -48.90 35
NA 09:00:00 TS 22.90 -49.15 37
NA 12:00:00 TS 23.30 -49.40 40
NA 15:00:00 TS 23.64 -49.64 40
NA 18:00:00 TS 24.00 -49.90 40
NA 21:00:00 TS 24.44 -50.20 40
NA 1861-09-13 00:00:00 TS 24.90 -50.50 40
NA 03:00:00 TS 25.35 -50.76 40
NA 06:00:00 TS 25.80 -51.00 40
NA 09:00:00 TS 26.25 -51.25 42
NA 12:00:00 TS 26.70 -51.50 45
NA 15:00:00 TS 27.15 -51.74 45
NA 18:00:00 TS 27.60 -52.00 45
NA 21:00:00 TS 28.04 -52.29 45
NA 1861-09-14 00:00:00 TS 28.50 -52.60 45
NA 03:00:00 TS 29.00 -52.90 45
NA 06:00:00 TS 29.50 -53.20 45
NA 09:00:00 TS 29.96 -53.51 50
NA 12:00:00 TS 30.40 -53.80 55
NA 15:00:00 TS 30.86 -54.06 55
NA 18:00:00 TS 31.30 -54.30 55
NA 21:00:00 TS 31.71 -54.56 55
NA 1861-09-15 00:00:00 TS 32.10 -54.80 55
NA 03:00:00 TS 32.45 -55.00 55
NA 06:00:00 TS 32.80 -55.20 55
NA 09:00:00 TS 33.20 -55.45 57
NA 12:00:00 TS 33.60 -55.70 60
NA 15:00:00 TS 33.88 -55.82 62
NA 18:00:00 TS 34.30 -56.10 65
NA 21:00:00 TS 35.08 -56.89 65
NA 1861-09-16 00:00:00 TS 36.00 -57.70 65
NA 03:00:00 TS 36.83 -58.13 65
NA 06:00:00 TS 37.60 -58.20 65
NA 09:00:00 TS 38.27 -58.02 67
NA 12:00:00 TS 38.90 -57.40 70
NA 15:00:00 TS 39.56 -56.42 70
NA 18:00:00 TS 40.20 -55.00 70
NA 21:00:00 TS 40.79 -53.25 70
NA 1861-09-17 00:00:00 TS 41.30 -51.30 70
NA 03:00:00 TS 41.74 -49.43 70
NA 06:00:00 TS 42.10 -47.60 70
NA 09:00:00 TS 42.38 -45.83 67
NA 12:00:00 TS 42.60 -44.10 65
NA 15:00:00 TS 42.70 -42.34 65
NA 18:00:00 TS 43.00 -40.60 65
NA 21:00:00 TS 43.80 -38.85 62
NA 1861-09-18 00:00:00 ET 44.80 -37.10 60
NA 03:00:00 ET 45.65 -35.34 60
NA 06:00:00 ET 46.50 -33.60 60
NA 09:00:00 ET 47.39 -31.86 55
NA 12:00:00 ET 48.30 -30.10 50

Source Information

Agency Information
USA
TOKYO
CMA
HKO
NEWDELHI
REUNION
BOM
NADI
WELLINGTON
DS824
TD9636
TD9635
NEUMANN
MLC

All available IBTrACS Data

SEASON BASIN SUBBASIN ISO_TIME_________ NATURE LAT LON DIST2LAND LANDFALL IFLAG USA SSHS MLC LAT MLC LON MLC CLASS MLC WIND STORM SPEED STORM DIR
Year degrees north degrees east km km 1 degrees north degrees east kts kts degrees
1861 NA NA 1861-09-11 00:00:00 TS 19.00 -46.30 1688 1688 _____________O -1 19.00 -46.30 TD 30 8 326
1861 NA NA 03:00:00 TS 19.35 -46.55 1720 1715 _____________P -1 19.35 -46.55 TD 30 8 326
1861 NA NA 06:00:00 TS 19.70 -46.80 1738 1738 _____________O -1 19.70 -46.80 TD 30 8 326
1861 NA NA 09:00:00 TS 20.05 -47.05 1755 1755 _____________P -1 20.05 -47.05 TD 32 8 326
1861 NA NA 12:00:00 TS 20.40 -47.30 1786 1786 _____________O -1 20.40 -47.30 TS 35 8 327
1861 NA NA 15:00:00 TS 20.75 -47.54 1807 1807 _____________P -1 20.75 -47.54 TS 35 8 326
1861 NA NA 18:00:00 TS 21.10 -47.80 1827 1824 _____________O -1 21.10 -47.80 TS 35 9 323
1861 NA NA 21:00:00 TS 21.45 -48.10 1831 1821 _____________P -1 21.45 -48.10 TS 35 9 321
1861 NA NA 1861-09-12 00:00:00 TS 21.80 -48.40 1829 1817 _____________O -1 21.80 -48.40 TS 35 9 323
1861 NA NA 03:00:00 TS 22.14 -48.66 1809 1795 _____________P -1 22.14 -48.66 TS 35 8 327
1861 NA NA 06:00:00 TS 22.50 -48.90 1797 1782 _____________O -1 22.50 -48.90 TS 35 9 329
1861 NA NA 09:00:00 TS 22.90 -49.15 1777 1765 _____________P -1 22.90 -49.15 TS 37 9 330
1861 NA NA 12:00:00 TS 23.30 -49.40 1768 1754 _____________O -1 23.30 -49.40 TS 40 9 329
1861 NA NA 15:00:00 TS 23.64 -49.64 1758 1738 _____________P -1 23.64 -49.64 TS 40 8 327
1861 NA NA 18:00:00 TS 24.00 -49.90 1742 1727 _____________O -1 24.00 -49.90 TS 40 9 327
1861 NA NA 21:00:00 TS 24.44 -50.20 1727 1715 _____________P -1 24.44 -50.20 TS 40 11 329
1861 NA NA 1861-09-13 00:00:00 TS 24.90 -50.50 1719 1713 _____________O -1 24.90 -50.50 TS 40 10 331
1861 NA NA 03:00:00 TS 25.35 -50.76 1709 1709 _____________P -1 25.35 -50.76 TS 40 10 333
1861 NA NA 06:00:00 TS 25.80 -51.00 1714 1710 _____________O -1 25.80 -51.00 TS 40 10 334
1861 NA NA 09:00:00 TS 26.25 -51.25 1707 1707 _____________P -1 26.25 -51.25 TS 42 10 334
1861 NA NA 12:00:00 TS 26.70 -51.50 1717 1714 _____________O -1 26.70 -51.50 TS 45 10 334
1861 NA NA 15:00:00 TS 27.15 -51.74 1722 1720 _____________P -1 27.15 -51.74 TS 45 10 334
1861 NA NA 18:00:00 TS 27.60 -52.00 1727 1724 _____________O -1 27.60 -52.00 TS 45 10 331
1861 NA NA 21:00:00 TS 28.04 -52.29 1728 1727 _____________P -1 28.04 -52.29 TS 45 10 330
1861 NA NA 1861-09-14 00:00:00 TS 28.50 -52.60 1738 1737 _____________O -1 28.50 -52.60 TS 45 11 331
1861 NA NA 03:00:00 TS 29.00 -52.90 1750 1750 _____________P -1 29.00 -52.90 TS 45 11 332
1861 NA NA 06:00:00 TS 29.50 -53.20 1765 1765 _____________O -1 29.50 -53.20 TS 45 11 331
1861 NA NA 09:00:00 TS 29.96 -53.51 1781 1766 _____________P -1 29.96 -53.51 TS 50 10 330
1861 NA NA 12:00:00 TS 30.40 -53.80 1766 1717 _____________O -1 30.40 -53.80 TS 55 10 332
1861 NA NA 15:00:00 TS 30.86 -54.06 1703 1655 _____________P -1 30.86 -54.06 TS 55 10 335
1861 NA NA 18:00:00 TS 31.30 -54.30 1655 1607 _____________O -1 31.30 -54.30 TS 55 10 333
1861 NA NA 21:00:00 TS 31.71 -54.56 1604 1555 _____________P -1 31.71 -54.56 TS 55 9 332
1861 NA NA 1861-09-15 00:00:00 TS 32.10 -54.80 1555 1518 _____________O -1 32.10 -54.80 TS 55 8 333
1861 NA NA 03:00:00 TS 32.45 -55.00 1518 1469 _____________P -1 32.45 -55.00 TS 55 8 334
1861 NA NA 06:00:00 TS 32.80 -55.20 1469 1421 _____________O -1 32.80 -55.20 TS 55 8 333
1861 NA NA 09:00:00 TS 33.20 -55.45 1421 1370 _____________P -1 33.20 -55.45 TS 57 9 332
1861 NA NA 12:00:00 TS 33.60 -55.70 1370 1336 _____________O -1 33.60 -55.70 TS 60 8 336
1861 NA NA 15:00:00 TS 33.88 -55.82 1336 1285 _____________P -1 33.88 -55.82 TS 62 8 335
1861 NA NA 18:00:00 TS 34.30 -56.10 1285 1191 _____________O -1 34.30 -56.10 HU 65 15 324
1861 NA NA 21:00:00 TS 35.08 -56.89 1178 1055 _____________P -1 35.08 -56.89 HU 65 21 322
1861 NA NA 1861-09-16 00:00:00 TS 36.00 -57.70 1055 962 _____________O -1 36.00 -57.70 HU 65 20 330
1861 NA NA 03:00:00 TS 36.83 -58.13 962 877 _____________P -1 36.83 -58.13 HU 65 17 346
1861 NA NA 06:00:00 TS 37.60 -58.20 877 817 _____________O -1 37.60 -58.20 HU 65 14 4
1861 NA NA 09:00:00 TS 38.27 -58.02 809 763 _____________P -1 38.27 -58.02 HU 67 14 26
1861 NA NA 12:00:00 TS 38.90 -57.40 763 732 _____________O -1 38.90 -57.40 HU 70 18 44
1861 NA NA 15:00:00 TS 39.56 -56.42 731 721 _____________P -1 39.56 -56.42 HU 70 23 55
1861 NA NA 18:00:00 TS 40.20 -55.00 720 644 _____________O -1 40.20 -55.00 HU 70 27 63
1861 NA NA 21:00:00 TS 40.79 -53.25 644 606 _____________P -1 40.79 -53.25 HU 70 30 69
1861 NA NA 1861-09-17 00:00:00 TS 41.30 -51.30 608 600 _____________O -1 41.30 -51.30 HU 70 30 72
1861 NA NA 03:00:00 TS 41.74 -49.43 622 616 _____________P -1 41.74 -49.43 HU 70 29 74
1861 NA NA 06:00:00 TS 42.10 -47.60 668 668 _____________O -1 42.10 -47.60 HU 70 27 77
1861 NA NA 09:00:00 TS 42.38 -45.83 747 747 _____________P -1 42.38 -45.83 HU 67 26 79
1861 NA NA 12:00:00 TS 42.60 -44.10 841 841 _____________O -1 42.60 -44.10 HU 65 26 83
1861 NA NA 15:00:00 TS 42.70 -42.34 955 955 _____________P -1 42.70 -42.34 HU 65 26 81
1861 NA NA 18:00:00 TS 43.00 -40.60 1059 1059 _____________O -1 43.00 -40.60 HU 65 28 67
1861 NA NA 21:00:00 TS 43.80 -38.85 1135 1135 _____________P -1 43.80 -38.85 HU 62 31 55
1861 NA NA 1861-09-18 00:00:00 ET 44.80 -37.10 1224 1224 _____________O -1 44.80 -37.10 EX 60 31 53
1861 NA NA 03:00:00 ET 45.65 -35.34 1331 1331 _____________P -1 45.65 -35.34 EX 60 30 55
1861 NA NA 06:00:00 ET 46.50 -33.60 1435 1435 _____________O -1 46.50 -33.60 EX 60 30 54
1861 NA NA 09:00:00 ET 47.39 -31.86 1545 1457 _____________P -1 47.39 -31.86 EX 55 30 53
1861 NA NA 12:00:00 ET 48.30 -30.10 1445 _____________O -1 48.30 -30.10 EX 50 30 52